sensor_id;sensor_type;location;lat;lon;timestamp;temperature;humidity
41344;DHT22;27089;50.022;7.604;2023-03-30T00:00:32;11.40;99.90
41344;DHT22;27089;50.022;7.604;2023-03-30T00:02:59;11.30;99.90
41344;DHT22;27089;50.022;7.604;2023-03-30T00:05:29;11.30;99.90
41344;DHT22;27089;50.022;7.604;2023-03-30T00:07:56;11.20;99.90
41344;DHT22;27089;50.022;7.604;2023-03-30T00:10:23;11.20;99.90
41344;DHT22;27089;50.022;7.604;2023-03-30T00:12:50;11.10;99.90
41344;DHT22;27089;50.022;7.604;2023-03-30T00:15:19;11.00;99.90
41344;DHT22;27089;50.022;7.604;2023-03-30T00:17:47;11.00;99.90
41344;DHT22;27089;50.022;7.604;2023-03-30T00:20:15;10.90;99.90
41344;DHT22;27089;50.022;7.604;2023-03-30T00:22:44;10.80;99.90
41344;DHT22;27089;50.022;7.604;2023-03-30T00:25:13;10.70;99.90
41344;DHT22;27089;50.022;7.604;2023-03-30T00:27:41;10.60;99.90
41344;DHT22;27089;50.022;7.604;2023-03-30T00:30:11;10.50;99.90
41344;DHT22;27089;50.022;7.604;2023-03-30T00:32:39;10.40;99.90
41344;DHT22;27089;50.022;7.604;2023-03-30T00:35:07;10.30;99.90
41344;DHT22;27089;50.022;7.604;2023-03-30T00:37:35;10.20;99.90
41344;DHT22;27089;50.022;7.604;2023-03-30T00:40:06;10.00;99.90
41344;DHT22;27089;50.022;7.604;2023-03-30T00:42:34;10.00;99.90
41344;DHT22;27089;50.022;7.604;2023-03-30T00:45:18;9.90;99.90
41344;DHT22;27089;50.022;7.604;2023-03-30T00:47:51;9.90;99.90
41344;DHT22;27089;50.022;7.604;2023-03-30T00:50:21;9.90;99.90
41344;DHT22;27089;50.022;7.604;2023-03-30T00:52:49;10.00;99.90
41344;DHT22;27089;50.022;7.604;2023-03-30T00:55:21;10.00;99.90
41344;DHT22;27089;50.022;7.604;2023-03-30T00:57:50;10.10;99.90
41344;DHT22;27089;50.022;7.604;2023-03-30T01:00:18;10.20;99.90
41344;DHT22;27089;50.022;7.604;2023-03-30T01:02:51;10.10;99.90
41344;DHT22;27089;50.022;7.604;2023-03-30T01:05:20;10.10;99.90
41344;DHT22;27089;50.022;7.604;2023-03-30T01:07:50;10.00;99.90
41344;DHT22;27089;50.022;7.604;2023-03-30T01:10:19;10.00;99.90
41344;DHT22;27089;50.022;7.604;2023-03-30T01:12:47;10.00;99.90
41344;DHT22;27089;50.022;7.604;2023-03-30T01:15:14;10.10;99.90
41344;DHT22;27089;50.022;7.604;2023-03-30T01:18:10;10.20;99.90
41344;DHT22;27089;50.022;7.604;2023-03-30T01:21:00;10.30;99.90
41344;DHT22;27089;50.022;7.604;2023-03-30T01:23:58;10.30;99.90
41344;DHT22;27089;50.022;7.604;2023-03-30T01:26:47;10.30;99.90
41344;DHT22;27089;50.022;7.604;2023-03-30T01:29:22;10.30;99.90
41344;DHT22;27089;50.022;7.604;2023-03-30T01:35:16;10.20;99.90
41344;DHT22;27089;50.022;7.604;2023-03-30T01:40:51;10.30;99.90
41344;DHT22;27089;50.022;7.604;2023-03-30T01:43:31;10.30;99.90
41344;DHT22;27089;50.022;7.604;2023-03-30T01:46:03;10.30;99.90
41344;DHT22;27089;50.022;7.604;2023-03-30T01:48:38;10.40;99.90
41344;DHT22;27089;50.022;7.604;2023-03-30T01:51:13;10.50;99.90
41344;DHT22;27089;50.022;7.604;2023-03-30T01:53:46;10.60;99.90
41344;DHT22;27089;50.022;7.604;2023-03-30T01:56:20;10.70;99.90
41344;DHT22;27089;50.022;7.604;2023-03-30T01:58:52;10.80;99.90
41344;DHT22;27089;50.022;7.604;2023-03-30T02:01:22;10.90;99.90
41344;DHT22;27089;50.022;7.604;2023-03-30T02:03:53;10.90;99.90
41344;DHT22;27089;50.022;7.604;2023-03-30T02:06:25;10.90;99.90
41344;DHT22;27089;50.022;7.604;2023-03-30T02:08:55;10.80;99.90
41344;DHT22;27089;50.022;7.604;2023-03-30T02:11:28;10.80;99.90
41344;DHT22;27089;50.022;7.604;2023-03-30T02:13:56;10.80;99.90
41344;DHT22;27089;50.022;7.604;2023-03-30T02:16:29;10.80;99.90
41344;DHT22;27089;50.022;7.604;2023-03-30T02:18:59;10.80;99.90
41344;DHT22;27089;50.022;7.604;2023-03-30T02:21:26;10.90;99.90
41344;DHT22;27089;50.022;7.604;2023-03-30T02:23:55;10.90;99.90
41344;DHT22;27089;50.022;7.604;2023-03-30T02:26:23;10.90;99.90
41344;DHT22;27089;50.022;7.604;2023-03-30T02:28:53;11.00;99.90
41344;DHT22;27089;50.022;7.604;2023-03-30T02:31:21;11.10;99.90
41344;DHT22;27089;50.022;7.604;2023-03-30T02:34:03;11.10;99.90
41344;DHT22;27089;50.022;7.604;2023-03-30T02:36:49;11.20;99.90
41344;DHT22;27089;50.022;7.604;2023-03-30T02:39:31;11.30;99.90
41344;DHT22;27089;50.022;7.604;2023-03-30T02:42:41;11.40;99.90
41344;DHT22;27089;50.022;7.604;2023-03-30T02:45:22;11.50;99.90
41344;DHT22;27089;50.022;7.604;2023-03-30T02:48:01;11.60;99.90
41344;DHT22;27089;50.022;7.604;2023-03-30T02:50:33;11.60;99.90
41344;DHT22;27089;50.022;7.604;2023-03-30T02:53:10;11.70;99.90
41344;DHT22;27089;50.022;7.604;2023-03-30T02:55:42;11.70;99.90
41344;DHT22;27089;50.022;7.604;2023-03-30T02:58:15;11.80;99.90
41344;DHT22;27089;50.022;7.604;2023-03-30T03:00:49;11.90;99.90
41344;DHT22;27089;50.022;7.604;2023-03-30T03:03:20;12.00;99.90
41344;DHT22;27089;50.022;7.604;2023-03-30T03:05:49;12.10;99.90
41344;DHT22;27089;50.022;7.604;2023-03-30T03:08:21;12.20;99.90
41344;DHT22;27089;50.022;7.604;2023-03-30T03:10:49;12.20;99.90
41344;DHT22;27089;50.022;7.604;2023-03-30T03:13:16;12.30;99.90
41344;DHT22;27089;50.022;7.604;2023-03-30T03:15:46;12.30;99.90
41344;DHT22;27089;50.022;7.604;2023-03-30T03:18:14;12.30;99.90
41344;DHT22;27089;50.022;7.604;2023-03-30T03:20:41;12.30;99.90
41344;DHT22;27089;50.022;7.604;2023-03-30T03:23:08;12.30;99.90
41344;DHT22;27089;50.022;7.604;2023-03-30T03:25:35;12.30;99.90
41344;DHT22;27089;50.022;7.604;2023-03-30T03:28:02;12.20;99.90
41344;DHT22;27089;50.022;7.604;2023-03-30T03:30:29;12.20;99.90
41344;DHT22;27089;50.022;7.604;2023-03-30T03:32:58;12.10;99.90
41344;DHT22;27089;50.022;7.604;2023-03-30T03:35:24;12.00;99.90
41344;DHT22;27089;50.022;7.604;2023-03-30T03:37:52;11.90;99.90
41344;DHT22;27089;50.022;7.604;2023-03-30T03:40:19;11.80;99.90
41344;DHT22;27089;50.022;7.604;2023-03-30T03:42:45;11.80;99.90
41344;DHT22;27089;50.022;7.604;2023-03-30T03:45:13;11.70;99.90
41344;DHT22;27089;50.022;7.604;2023-03-30T03:47:40;11.70;99.90
41344;DHT22;27089;50.022;7.604;2023-03-30T03:50:08;11.70;99.90
41344;DHT22;27089;50.022;7.604;2023-03-30T03:52:36;11.70;99.90
41344;DHT22;27089;50.022;7.604;2023-03-30T03:55:03;11.70;99.90
41344;DHT22;27089;50.022;7.604;2023-03-30T03:57:31;11.70;99.90
41344;DHT22;27089;50.022;7.604;2023-03-30T03:59:58;11.70;99.90
41344;DHT22;27089;50.022;7.604;2023-03-30T04:02:25;11.80;99.90
41344;DHT22;27089;50.022;7.604;2023-03-30T04:04:52;11.70;99.90
41344;DHT22;27089;50.022;7.604;2023-03-30T04:07:20;11.70;99.90
41344;DHT22;27089;50.022;7.604;2023-03-30T04:09:50;11.60;99.90
41344;DHT22;27089;50.022;7.604;2023-03-30T04:12:17;11.60;99.90
41344;DHT22;27089;50.022;7.604;2023-03-30T04:14:44;11.50;99.90
41344;DHT22;27089;50.022;7.604;2023-03-30T04:17:11;11.50;99.90
41344;DHT22;27089;50.022;7.604;2023-03-30T04:19:39;11.40;99.90
41344;DHT22;27089;50.022;7.604;2023-03-30T04:22:06;11.40;99.90
41344;DHT22;27089;50.022;7.604;2023-03-30T04:24:34;11.40;99.90
41344;DHT22;27089;50.022;7.604;2023-03-30T04:27:02;11.40;99.90
41344;DHT22;27089;50.022;7.604;2023-03-30T04:29:29;11.50;99.90
41344;DHT22;27089;50.022;7.604;2023-03-30T04:31:56;11.60;99.90
41344;DHT22;27089;50.022;7.604;2023-03-30T04:34:27;11.70;99.90
41344;DHT22;27089;50.022;7.604;2023-03-30T04:36:55;11.80;99.90
41344;DHT22;27089;50.022;7.604;2023-03-30T04:39:22;11.80;99.90
41344;DHT22;27089;50.022;7.604;2023-03-30T04:41:51;11.90;99.90
41344;DHT22;27089;50.022;7.604;2023-03-30T04:44:18;12.00;99.90
41344;DHT22;27089;50.022;7.604;2023-03-30T04:46:46;12.10;99.90
41344;DHT22;27089;50.022;7.604;2023-03-30T04:49:13;12.20;99.90
41344;DHT22;27089;50.022;7.604;2023-03-30T04:51:40;12.30;99.90
41344;DHT22;27089;50.022;7.604;2023-03-30T04:54:07;12.30;99.90
41344;DHT22;27089;50.022;7.604;2023-03-30T04:56:34;12.30;99.90
41344;DHT22;27089;50.022;7.604;2023-03-30T04:59:03;12.30;99.90
41344;DHT22;27089;50.022;7.604;2023-03-30T05:01:29;12.40;99.90
41344;DHT22;27089;50.022;7.604;2023-03-30T05:03:56;12.40;99.90
41344;DHT22;27089;50.022;7.604;2023-03-30T05:06:23;12.40;99.90
41344;DHT22;27089;50.022;7.604;2023-03-30T05:08:54;12.50;99.90
41344;DHT22;27089;50.022;7.604;2023-03-30T05:11:21;12.50;99.90
41344;DHT22;27089;50.022;7.604;2023-03-30T05:13:50;12.60;99.90
41344;DHT22;27089;50.022;7.604;2023-03-30T05:16:18;12.60;99.90
41344;DHT22;27089;50.022;7.604;2023-03-30T05:18:46;12.60;99.90
41344;DHT22;27089;50.022;7.604;2023-03-30T05:21:13;12.60;99.90
41344;DHT22;27089;50.022;7.604;2023-03-30T05:23:39;12.60;99.90
41344;DHT22;27089;50.022;7.604;2023-03-30T05:26:07;12.60;99.90
41344;DHT22;27089;50.022;7.604;2023-03-30T05:28:35;12.60;99.90
41344;DHT22;27089;50.022;7.604;2023-03-30T05:31:02;12.60;99.90
41344;DHT22;27089;50.022;7.604;2023-03-30T05:33:30;12.60;99.90
41344;DHT22;27089;50.022;7.604;2023-03-30T05:35:57;12.50;99.90
41344;DHT22;27089;50.022;7.604;2023-03-30T05:38:24;12.40;99.90
41344;DHT22;27089;50.022;7.604;2023-03-30T05:40:52;12.40;99.90
41344;DHT22;27089;50.022;7.604;2023-03-30T05:43:19;12.30;99.90
41344;DHT22;27089;50.022;7.604;2023-03-30T05:45:46;12.30;99.90
41344;DHT22;27089;50.022;7.604;2023-03-30T05:48:13;12.20;99.90
41344;DHT22;27089;50.022;7.604;2023-03-30T05:50:42;12.10;99.90
41344;DHT22;27089;50.022;7.604;2023-03-30T05:53:09;12.00;99.90
41344;DHT22;27089;50.022;7.604;2023-03-30T05:55:36;12.00;99.90
41344;DHT22;27089;50.022;7.604;2023-03-30T05:58:03;11.90;99.90
41344;DHT22;27089;50.022;7.604;2023-03-30T06:00:30;11.90;99.90
41344;DHT22;27089;50.022;7.604;2023-03-30T06:02:59;11.80;99.90
41344;DHT22;27089;50.022;7.604;2023-03-30T06:05:26;11.80;99.90
41344;DHT22;27089;50.022;7.604;2023-03-30T06:07:54;11.70;99.90
41344;DHT22;27089;50.022;7.604;2023-03-30T06:10:21;11.70;99.90
41344;DHT22;27089;50.022;7.604;2023-03-30T06:12:48;11.70;99.90
41344;DHT22;27089;50.022;7.604;2023-03-30T06:15:15;11.70;99.90
41344;DHT22;27089;50.022;7.604;2023-03-30T06:17:42;11.60;99.90
41344;DHT22;27089;50.022;7.604;2023-03-30T06:20:10;11.70;99.90
41344;DHT22;27089;50.022;7.604;2023-03-30T06:22:38;11.70;99.90
41344;DHT22;27089;50.022;7.604;2023-03-30T06:25:08;11.60;99.90
41344;DHT22;27089;50.022;7.604;2023-03-30T06:27:38;11.70;99.90
41344;DHT22;27089;50.022;7.604;2023-03-30T06:30:06;11.70;99.90
41344;DHT22;27089;50.022;7.604;2023-03-30T06:32:34;11.70;99.90
41344;DHT22;27089;50.022;7.604;2023-03-30T06:35:02;11.80;99.90
41344;DHT22;27089;50.022;7.604;2023-03-30T06:37:29;11.80;99.90
41344;DHT22;27089;50.022;7.604;2023-03-30T06:39:57;11.90;99.90
41344;DHT22;27089;50.022;7.604;2023-03-30T06:42:26;12.00;99.90
41344;DHT22;27089;50.022;7.604;2023-03-30T06:44:53;12.20;99.90
41344;DHT22;27089;50.022;7.604;2023-03-30T06:47:20;12.60;99.90
41344;DHT22;27089;50.022;7.604;2023-03-30T06:49:47;12.90;99.90
41344;DHT22;27089;50.022;7.604;2023-03-30T06:52:14;12.90;99.90
41344;DHT22;27089;50.022;7.604;2023-03-30T06:54:41;12.70;99.90
41344;DHT22;27089;50.022;7.604;2023-03-30T06:57:08;12.60;99.90
41344;DHT22;27089;50.022;7.604;2023-03-30T06:59:36;12.50;99.90
41344;DHT22;27089;50.022;7.604;2023-03-30T07:02:03;12.50;99.90
41344;DHT22;27089;50.022;7.604;2023-03-30T07:04:30;12.40;99.90
41344;DHT22;27089;50.022;7.604;2023-03-30T07:06:57;12.40;99.90
41344;DHT22;27089;50.022;7.604;2023-03-30T07:09:24;12.40;99.90
41344;DHT22;27089;50.022;7.604;2023-03-30T07:11:52;12.40;99.90
41344;DHT22;27089;50.022;7.604;2023-03-30T07:14:18;12.30;99.90
41344;DHT22;27089;50.022;7.604;2023-03-30T07:16:47;12.30;99.90
41344;DHT22;27089;50.022;7.604;2023-03-30T07:19:14;12.40;99.90
41344;DHT22;27089;50.022;7.604;2023-03-30T07:21:42;12.50;99.90
41344;DHT22;27089;50.022;7.604;2023-03-30T07:24:08;12.70;99.90
41344;DHT22;27089;50.022;7.604;2023-03-30T07:26:35;12.80;99.90
41344;DHT22;27089;50.022;7.604;2023-03-30T07:29:02;13.10;99.90
41344;DHT22;27089;50.022;7.604;2023-03-30T07:31:30;13.40;99.90
41344;DHT22;27089;50.022;7.604;2023-03-30T07:33:59;15.10;99.90
41344;DHT22;27089;50.022;7.604;2023-03-30T07:36:27;16.90;99.90
41344;DHT22;27089;50.022;7.604;2023-03-30T07:38:55;17.10;99.90
41344;DHT22;27089;50.022;7.604;2023-03-30T07:41:23;16.70;99.90
41344;DHT22;27089;50.022;7.604;2023-03-30T07:43:50;16.40;99.90
41344;DHT22;27089;50.022;7.604;2023-03-30T07:46:17;15.90;99.90
41344;DHT22;27089;50.022;7.604;2023-03-30T07:48:44;15.30;99.90
41344;DHT22;27089;50.022;7.604;2023-03-30T07:51:12;14.90;99.90
41344;DHT22;27089;50.022;7.604;2023-03-30T07:53:40;14.60;99.90
41344;DHT22;27089;50.022;7.604;2023-03-30T07:56:07;14.50;99.90
41344;DHT22;27089;50.022;7.604;2023-03-30T07:58:35;15.00;99.90
41344;DHT22;27089;50.022;7.604;2023-03-30T08:01:02;16.60;99.90
41344;DHT22;27089;50.022;7.604;2023-03-30T08:03:29;17.70;99.90
41344;DHT22;27089;50.022;7.604;2023-03-30T08:05:59;18.20;99.90
41344;DHT22;27089;50.022;7.604;2023-03-30T08:08:30;18.30;99.90
41344;DHT22;27089;50.022;7.604;2023-03-30T08:10:57;18.70;99.90
41344;DHT22;27089;50.022;7.604;2023-03-30T08:13:24;18.90;99.90
41344;DHT22;27089;50.022;7.604;2023-03-30T08:15:52;19.40;99.90
41344;DHT22;27089;50.022;7.604;2023-03-30T08:18:19;19.60;99.90
41344;DHT22;27089;50.022;7.604;2023-03-30T08:20:49;19.00;99.90
41344;DHT22;27089;50.022;7.604;2023-03-30T08:23:16;17.90;99.90
41344;DHT22;27089;50.022;7.604;2023-03-30T08:25:45;17.00;99.90
41344;DHT22;27089;50.022;7.604;2023-03-30T08:28:15;16.40;99.90
41344;DHT22;27089;50.022;7.604;2023-03-30T08:30:42;16.00;99.90
41344;DHT22;27089;50.022;7.604;2023-03-30T08:33:09;15.70;99.90
41344;DHT22;27089;50.022;7.604;2023-03-30T08:35:38;15.50;99.90
41344;DHT22;27089;50.022;7.604;2023-03-30T08:38:05;15.40;99.90
41344;DHT22;27089;50.022;7.604;2023-03-30T08:40:32;15.30;99.90
41344;DHT22;27089;50.022;7.604;2023-03-30T08:46:03;15.40;99.90
41344;DHT22;27089;50.022;7.604;2023-03-30T08:48:31;15.40;99.90
41344;DHT22;27089;50.022;7.604;2023-03-30T08:51:07;15.30;99.90
41344;DHT22;27089;50.022;7.604;2023-03-30T08:53:37;15.30;99.90
41344;DHT22;27089;50.022;7.604;2023-03-30T08:56:08;15.30;99.90
41344;DHT22;27089;50.022;7.604;2023-03-30T08:58:44;15.30;99.90
41344;DHT22;27089;50.022;7.604;2023-03-30T09:01:21;15.30;99.90
41344;DHT22;27089;50.022;7.604;2023-03-30T09:04:03;15.30;99.90
41344;DHT22;27089;50.022;7.604;2023-03-30T09:06:42;15.40;99.90
41344;DHT22;27089;50.022;7.604;2023-03-30T09:09:12;15.60;99.90
41344;DHT22;27089;50.022;7.604;2023-03-30T09:11:41;16.00;99.90
41344;DHT22;27089;50.022;7.604;2023-03-30T09:14:15;16.50;99.90
41344;DHT22;27089;50.022;7.604;2023-03-30T09:16:50;17.30;99.90
41344;DHT22;27089;50.022;7.604;2023-03-30T09:19:23;17.90;99.90
41344;DHT22;27089;50.022;7.604;2023-03-30T09:21:53;18.40;99.90
41344;DHT22;27089;50.022;7.604;2023-03-30T09:24:24;18.30;99.90
41344;DHT22;27089;50.022;7.604;2023-03-30T09:26:56;17.70;99.90
41344;DHT22;27089;50.022;7.604;2023-03-30T09:29:25;17.50;99.90
41344;DHT22;27089;50.022;7.604;2023-03-30T09:32:02;17.40;99.90
41344;DHT22;27089;50.022;7.604;2023-03-30T09:34:37;16.90;99.90
41344;DHT22;27089;50.022;7.604;2023-03-30T09:37:09;16.60;99.90
41344;DHT22;27089;50.022;7.604;2023-03-30T09:39:37;16.40;99.90
41344;DHT22;27089;50.022;7.604;2023-03-30T09:42:23;16.10;99.90
41344;DHT22;27089;50.022;7.604;2023-03-30T09:44:55;16.20;99.90
41344;DHT22;27089;50.022;7.604;2023-03-30T09:47:27;16.90;99.90
41344;DHT22;27089;50.022;7.604;2023-03-30T09:49:59;17.50;99.90
41344;DHT22;27089;50.022;7.604;2023-03-30T09:52:27;17.50;99.90
41344;DHT22;27089;50.022;7.604;2023-03-30T09:55:04;17.30;99.90
41344;DHT22;27089;50.022;7.604;2023-03-30T09:57:42;17.30;99.90
41344;DHT22;27089;50.022;7.604;2023-03-30T10:00:24;17.30;99.90
41344;DHT22;27089;50.022;7.604;2023-03-30T10:02:56;17.70;99.90
41344;DHT22;27089;50.022;7.604;2023-03-30T10:05:24;18.10;99.90
41344;DHT22;27089;50.022;7.604;2023-03-30T10:07:52;18.40;99.90
41344;DHT22;27089;50.022;7.604;2023-03-30T10:10:31;18.90;99.90
41344;DHT22;27089;50.022;7.604;2023-03-30T10:13:05;18.90;99.90
41344;DHT22;27089;50.022;7.604;2023-03-30T10:15:35;18.60;99.90
41344;DHT22;27089;50.022;7.604;2023-03-30T10:18:20;18.90;99.90
41344;DHT22;27089;50.022;7.604;2023-03-30T10:20:51;18.70;99.90
41344;DHT22;27089;50.022;7.604;2023-03-30T10:23:19;18.10;99.90
41344;DHT22;27089;50.022;7.604;2023-03-30T10:25:49;17.30;99.90
41344;DHT22;27089;50.022;7.604;2023-03-30T10:28:18;16.80;99.90
41344;DHT22;27089;50.022;7.604;2023-03-30T10:30:50;16.90;99.90
41344;DHT22;27089;50.022;7.604;2023-03-30T10:33:19;17.90;99.90
41344;DHT22;27089;50.022;7.604;2023-03-30T10:35:49;18.50;99.90
41344;DHT22;27089;50.022;7.604;2023-03-30T10:38:18;19.10;99.90
41344;DHT22;27089;50.022;7.604;2023-03-30T10:40:46;19.70;99.90
41344;DHT22;27089;50.022;7.604;2023-03-30T10:43:19;19.90;99.90
41344;DHT22;27089;50.022;7.604;2023-03-30T10:45:49;19.60;99.90
41344;DHT22;27089;50.022;7.604;2023-03-30T10:48:36;19.20;99.90
41344;DHT22;27089;50.022;7.604;2023-03-30T10:51:13;18.60;99.90
41344;DHT22;27089;50.022;7.604;2023-03-30T10:53:50;18.10;99.90
41344;DHT22;27089;50.022;7.604;2023-03-30T10:56:25;17.90;99.90
41344;DHT22;27089;50.022;7.604;2023-03-30T10:59:27;17.80;99.90
41344;DHT22;27089;50.022;7.604;2023-03-30T11:02:13;17.70;99.90
41344;DHT22;27089;50.022;7.604;2023-03-30T11:04:45;17.20;99.90
41344;DHT22;27089;50.022;7.604;2023-03-30T11:07:17;17.00;99.90
41344;DHT22;27089;50.022;7.604;2023-03-30T11:09:53;16.70;99.90
41344;DHT22;27089;50.022;7.604;2023-03-30T11:12:21;16.60;99.90
41344;DHT22;27089;50.022;7.604;2023-03-30T11:14:54;16.50;99.90
41344;DHT22;27089;50.022;7.604;2023-03-30T11:17:24;16.50;99.90
41344;DHT22;27089;50.022;7.604;2023-03-30T11:19:55;16.70;99.90
41344;DHT22;27089;50.022;7.604;2023-03-30T11:22:26;16.70;99.90
41344;DHT22;27089;50.022;7.604;2023-03-30T11:24:57;16.80;99.90
41344;DHT22;27089;50.022;7.604;2023-03-30T11:27:27;17.00;99.90
41344;DHT22;27089;50.022;7.604;2023-03-30T11:29:58;17.30;99.90
41344;DHT22;27089;50.022;7.604;2023-03-30T11:32:30;17.30;99.90
41344;DHT22;27089;50.022;7.604;2023-03-30T11:35:08;17.20;99.90
41344;DHT22;27089;50.022;7.604;2023-03-30T11:37:41;17.10;99.90
41344;DHT22;27089;50.022;7.604;2023-03-30T11:40:16;16.90;99.90
41344;DHT22;27089;50.022;7.604;2023-03-30T11:42:44;16.70;99.90
41344;DHT22;27089;50.022;7.604;2023-03-30T11:45:32;16.80;99.90
41344;DHT22;27089;50.022;7.604;2023-03-30T11:51:40;16.90;99.90
41344;DHT22;27089;50.022;7.604;2023-03-30T11:54:26;16.70;99.90
41344;DHT22;27089;50.022;7.604;2023-03-30T11:57:00;16.50;99.90
41344;DHT22;27089;50.022;7.604;2023-03-30T11:59:38;16.10;99.90
41344;DHT22;27089;50.022;7.604;2023-03-30T12:02:15;15.80;99.90
41344;DHT22;27089;50.022;7.604;2023-03-30T12:04:47;15.80;99.90
41344;DHT22;27089;50.022;7.604;2023-03-30T12:07:26;16.20;99.90
41344;DHT22;27089;50.022;7.604;2023-03-30T12:09:55;16.80;99.90
41344;DHT22;27089;50.022;7.604;2023-03-30T12:12:28;17.00;99.90
41344;DHT22;27089;50.022;7.604;2023-03-30T12:15:16;17.10;99.90
41344;DHT22;27089;50.022;7.604;2023-03-30T12:17:50;17.20;99.90
41344;DHT22;27089;50.022;7.604;2023-03-30T12:20:27;16.90;99.90
41344;DHT22;27089;50.022;7.604;2023-03-30T12:23:03;16.80;99.90
41344;DHT22;27089;50.022;7.604;2023-03-30T12:25:46;16.60;99.90
41344;DHT22;27089;50.022;7.604;2023-03-30T12:28:16;16.60;99.90
41344;DHT22;27089;50.022;7.604;2023-03-30T12:30:52;16.50;99.90
41344;DHT22;27089;50.022;7.604;2023-03-30T12:33:25;16.20;99.90
41344;DHT22;27089;50.022;7.604;2023-03-30T12:35:57;15.90;99.90
41344;DHT22;27089;50.022;7.604;2023-03-30T12:38:27;15.70;99.90
41344;DHT22;27089;50.022;7.604;2023-03-30T12:41:06;15.30;99.90
41344;DHT22;27089;50.022;7.604;2023-03-30T12:44:01;15.10;99.90
41344;DHT22;27089;50.022;7.604;2023-03-30T12:46:33;15.30;99.90
41344;DHT22;27089;50.022;7.604;2023-03-30T12:49:06;15.60;99.90
41344;DHT22;27089;50.022;7.604;2023-03-30T12:51:47;15.80;99.90
41344;DHT22;27089;50.022;7.604;2023-03-30T12:57:33;16.00;99.90
41344;DHT22;27089;50.022;7.604;2023-03-30T13:00:21;16.20;99.90
41344;DHT22;27089;50.022;7.604;2023-03-30T13:03:03;16.30;99.90
41344;DHT22;27089;50.022;7.604;2023-03-30T13:05:34;16.50;99.90
41344;DHT22;27089;50.022;7.604;2023-03-30T13:08:03;16.50;99.90
41344;DHT22;27089;50.022;7.604;2023-03-30T13:10:36;16.50;99.90
41344;DHT22;27089;50.022;7.604;2023-03-30T13:13:04;16.50;99.90
41344;DHT22;27089;50.022;7.604;2023-03-30T13:15:45;16.60;99.90
41344;DHT22;27089;50.022;7.604;2023-03-30T13:18:50;16.80;99.90
41344;DHT22;27089;50.022;7.604;2023-03-30T13:21:21;16.80;99.90
41344;DHT22;27089;50.022;7.604;2023-03-30T13:24:00;16.60;99.90
41344;DHT22;27089;50.022;7.604;2023-03-30T13:26:39;16.40;99.90
41344;DHT22;27089;50.022;7.604;2023-03-30T13:29:07;16.10;99.90
41344;DHT22;27089;50.022;7.604;2023-03-30T13:32:06;15.90;99.90
41344;DHT22;27089;50.022;7.604;2023-03-30T13:34:51;15.40;99.90
41344;DHT22;27089;50.022;7.604;2023-03-30T13:37:26;14.60;99.90
41344;DHT22;27089;50.022;7.604;2023-03-30T13:40:01;13.50;99.90
41344;DHT22;27089;50.022;7.604;2023-03-30T13:42:44;12.80;99.90
41344;DHT22;27089;50.022;7.604;2023-03-30T13:45:24;12.30;99.90
41344;DHT22;27089;50.022;7.604;2023-03-30T13:48:03;12.10;99.90
41344;DHT22;27089;50.022;7.604;2023-03-30T13:50:33;11.90;99.90
41344;DHT22;27089;50.022;7.604;2023-03-30T13:53:02;11.90;99.90
41344;DHT22;27089;50.022;7.604;2023-03-30T13:55:31;12.00;99.90
41344;DHT22;27089;50.022;7.604;2023-03-30T13:58:02;12.30;99.90
41344;DHT22;27089;50.022;7.604;2023-03-30T14:00:34;12.40;99.90
41344;DHT22;27089;50.022;7.604;2023-03-30T14:03:33;12.60;99.90
41344;DHT22;27089;50.022;7.604;2023-03-30T14:06:03;12.70;99.90
41344;DHT22;27089;50.022;7.604;2023-03-30T14:08:34;12.80;99.90
41344;DHT22;27089;50.022;7.604;2023-03-30T14:11:05;13.10;99.90
41344;DHT22;27089;50.022;7.604;2023-03-30T14:13:36;13.40;99.90
41344;DHT22;27089;50.022;7.604;2023-03-30T14:16:05;13.70;99.90
41344;DHT22;27089;50.022;7.604;2023-03-30T14:18:32;13.80;99.90
41344;DHT22;27089;50.022;7.604;2023-03-30T14:21:01;13.80;99.90
41344;DHT22;27089;50.022;7.604;2023-03-30T14:23:35;13.60;99.90
41344;DHT22;27089;50.022;7.604;2023-03-30T14:26:10;13.40;99.90
41344;DHT22;27089;50.022;7.604;2023-03-30T14:28:39;13.20;99.90
41344;DHT22;27089;50.022;7.604;2023-03-30T14:31:12;13.10;99.90
41344;DHT22;27089;50.022;7.604;2023-03-30T14:33:39;13.00;99.90
41344;DHT22;27089;50.022;7.604;2023-03-30T14:36:07;13.00;99.90
41344;DHT22;27089;50.022;7.604;2023-03-30T14:38:39;13.10;99.90
41344;DHT22;27089;50.022;7.604;2023-03-30T14:41:09;13.40;99.90
41344;DHT22;27089;50.022;7.604;2023-03-30T14:43:39;13.50;99.90
41344;DHT22;27089;50.022;7.604;2023-03-30T14:46:09;13.60;99.90
41344;DHT22;27089;50.022;7.604;2023-03-30T14:48:39;13.70;99.90
41344;DHT22;27089;50.022;7.604;2023-03-30T14:51:20;13.60;99.90
41344;DHT22;27089;50.022;7.604;2023-03-30T14:53:49;13.50;99.90
41344;DHT22;27089;50.022;7.604;2023-03-30T14:56:17;13.40;99.90
41344;DHT22;27089;50.022;7.604;2023-03-30T14:58:47;13.40;99.90
41344;DHT22;27089;50.022;7.604;2023-03-30T15:01:17;13.40;99.90
41344;DHT22;27089;50.022;7.604;2023-03-30T15:03:46;13.40;99.90
41344;DHT22;27089;50.022;7.604;2023-03-30T15:06:19;13.60;99.90
41344;DHT22;27089;50.022;7.604;2023-03-30T15:08:46;13.80;99.90
41344;DHT22;27089;50.022;7.604;2023-03-30T15:11:15;14.00;99.90
41344;DHT22;27089;50.022;7.604;2023-03-30T15:13:48;13.90;99.90
41344;DHT22;27089;50.022;7.604;2023-03-30T15:16:20;13.80;99.90
41344;DHT22;27089;50.022;7.604;2023-03-30T15:18:48;13.60;99.90
41344;DHT22;27089;50.022;7.604;2023-03-30T15:21:17;13.40;99.90
41344;DHT22;27089;50.022;7.604;2023-03-30T15:23:45;13.30;99.90
41344;DHT22;27089;50.022;7.604;2023-03-30T15:26:13;13.10;99.90
41344;DHT22;27089;50.022;7.604;2023-03-30T15:28:43;13.00;99.90
41344;DHT22;27089;50.022;7.604;2023-03-30T15:31:13;13.00;99.90
41344;DHT22;27089;50.022;7.604;2023-03-30T15:33:42;12.80;99.90
41344;DHT22;27089;50.022;7.604;2023-03-30T15:36:11;12.60;99.90
41344;DHT22;27089;50.022;7.604;2023-03-30T15:38:45;12.40;99.90
41344;DHT22;27089;50.022;7.604;2023-03-30T15:41:13;12.30;99.90
41344;DHT22;27089;50.022;7.604;2023-03-30T15:43:57;12.40;99.90
41344;DHT22;27089;50.022;7.604;2023-03-30T15:46:26;12.70;99.90
41344;DHT22;27089;50.022;7.604;2023-03-30T15:48:54;13.10;99.90
41344;DHT22;27089;50.022;7.604;2023-03-30T15:51:25;13.30;99.90
41344;DHT22;27089;50.022;7.604;2023-03-30T15:53:58;13.50;99.90
41344;DHT22;27089;50.022;7.604;2023-03-30T15:56:30;13.60;99.90
41344;DHT22;27089;50.022;7.604;2023-03-30T15:58:59;13.70;99.90
41344;DHT22;27089;50.022;7.604;2023-03-30T16:01:47;13.70;99.90
41344;DHT22;27089;50.022;7.604;2023-03-30T16:04:20;13.70;99.90
41344;DHT22;27089;50.022;7.604;2023-03-30T16:06:47;13.50;99.90
41344;DHT22;27089;50.022;7.604;2023-03-30T16:09:14;13.50;99.90
41344;DHT22;27089;50.022;7.604;2023-03-30T16:11:43;13.30;99.90